createdAt,value
2017-08-31T00:08:08.864Z,22.058847999999998
2017-08-31T00:28:13.973Z,22.058847999999998
2017-08-31T00:48:17.927Z,22.058847999999998
2017-08-31T01:08:23.003Z,21.99637
2017-08-31T01:28:27.923Z,21.99637
2017-08-31T01:48:33.015Z,21.99637
2017-08-31T02:08:37.995Z,21.99637
2017-08-31T02:28:43.246Z,21.99637
2017-08-31T02:48:48.069Z,21.99637
2017-08-31T03:08:53.174Z,21.933892
2017-08-31T03:28:58.143Z,21.99637
2017-08-31T03:49:03.282Z,21.933892
2017-08-31T04:09:08.258Z,21.871413999999998
2017-08-31T04:29:13.384Z,21.871413999999998
2017-08-31T04:49:18.421Z,21.871413999999998
2017-08-31T05:09:23.433Z,21.871413999999998
2017-08-31T05:29:28.497Z,21.871413999999998
2017-08-31T05:49:33.610Z,21.808936
2017-08-31T06:09:38.484Z,21.871413999999998
2017-08-31T06:29:43.528Z,21.808936
2017-08-31T06:49:48.664Z,21.808936
2017-08-31T07:29:58.625Z,21.808936
2017-08-31T07:50:03.774Z,21.746457999999997
2017-08-31T08:10:08.820Z,21.746457999999997
2017-08-31T08:30:13.864Z,21.746457999999997
2017-08-31T08:50:18.818Z,21.746457999999997
2017-08-31T09:10:23.957Z,21.746457999999997
2017-08-31T09:30:28.887Z,21.746457999999997
2017-08-31T09:50:33.943Z,21.746457999999997
2017-08-31T10:10:39.071Z,21.746457999999997
2017-08-31T10:30:44.115Z,21.746457999999997
2017-08-31T10:50:49.170Z,21.746457999999997
2017-08-31T11:10:54.335Z,21.746457999999997
2017-08-31T11:30:59.310Z,21.746457999999997
2017-08-31T11:51:05.057Z,21.746457999999997
2017-08-31T12:11:09.192Z,21.808936
2017-08-31T12:31:14.235Z,21.746457999999997
2017-08-31T12:51:19.366Z,21.746457999999997
2017-08-31T13:11:24.451Z,21.808936
2017-08-31T13:31:29.378Z,21.808936
2017-08-31T13:51:34.400Z,21.808936
2017-08-31T14:11:39.497Z,21.808936
2017-08-31T14:31:44.550Z,21.746457999999997
2017-08-31T14:51:49.609Z,21.746457999999997
2017-08-31T15:11:54.639Z,21.746457999999997
2017-08-31T15:31:59.804Z,21.746457999999997
2017-08-31T15:52:04.721Z,21.746457999999997
2017-08-31T16:12:09.742Z,21.746457999999997
2017-08-31T16:32:14.808Z,21.746457999999997
2017-08-31T16:52:19.846Z,21.68398
2017-08-31T17:12:24.868Z,21.68398
2017-08-31T17:32:29.918Z,21.621502
2017-08-31T17:52:34.848Z,21.621502
2017-08-31T18:12:39.892Z,21.621502
2017-08-31T18:32:44.930Z,21.621502
2017-08-31T18:52:49.994Z,21.559023999999997
2017-08-31T19:12:55.013Z,21.559023999999997
2017-08-31T19:33:00.055Z,21.496546
2017-08-31T19:53:05.186Z,21.559023999999997
2017-08-31T20:13:10.138Z,21.559023999999997
2017-08-31T20:33:15.277Z,21.496546
2017-08-31T20:53:20.215Z,21.496546
2017-08-31T21:13:25.264Z,21.496546
2017-08-31T21:33:30.405Z,21.496546
2017-08-31T21:53:35.333Z,21.434068
2017-08-31T22:13:39.485Z,21.496546
2017-08-31T22:53:49.577Z,21.434068
2017-08-31T23:13:54.517Z,21.434068
2017-08-31T23:33:59.559Z,21.434068
2017-08-31T23:54:04.630Z,21.371589999999998
